createdAt,value
2023-04-20T00:01:57.178Z,9.17
2023-04-20T00:04:25.979Z,9.07
2023-04-20T00:06:54.457Z,9.27
2023-04-20T00:09:22.960Z,9.40
2023-04-20T00:11:51.602Z,9.73
2023-04-20T00:14:20.801Z,9.23
2023-04-20T00:16:50.505Z,8.83
2023-04-20T00:19:19.426Z,8.73
2023-04-20T00:21:48.914Z,8.43
2023-04-20T00:24:17.805Z,8.77
2023-04-20T00:26:46.343Z,8.87
2023-04-20T00:29:15.184Z,9.27
2023-04-20T00:31:44.106Z,9.47
2023-04-20T00:34:12.623Z,8.53
2023-04-20T00:36:41.220Z,7.97
2023-04-20T00:39:09.666Z,8.50
2023-04-20T00:41:38.233Z,8.60
2023-04-20T00:44:11.531Z,8.47
2023-04-20T00:46:40.063Z,8.73
2023-04-20T00:49:08.942Z,8.73
2023-04-20T00:51:38.178Z,8.73
2023-04-20T00:54:06.985Z,8.37
2023-04-20T00:56:35.718Z,7.97
2023-04-20T00:59:04.567Z,8.27
2023-04-20T01:01:33.433Z,7.97
2023-04-20T01:04:02.004Z,9.63
2023-04-20T01:06:30.761Z,8.53
2023-04-20T01:08:59.456Z,8.53
2023-04-20T01:11:27.907Z,9.10
2023-04-20T01:13:56.566Z,9.53
2023-04-20T01:16:25.405Z,8.73
2023-04-20T01:18:53.678Z,9.20
2023-04-20T01:21:23.501Z,8.53
2023-04-20T01:23:52.025Z,8.50
2023-04-20T01:26:24.075Z,8.50
2023-04-20T01:28:52.992Z,11.20
2023-04-20T01:31:22.184Z,9.00
2023-04-20T01:33:50.702Z,8.30
2023-04-20T01:36:19.332Z,8.10
2023-04-20T01:38:48.314Z,8.63
2023-04-20T01:41:17.083Z,10.83
2023-04-20T01:43:45.644Z,8.40
2023-04-20T01:46:14.480Z,8.50
2023-04-20T01:48:43.044Z,8.50
2023-04-20T01:51:11.635Z,9.50
2023-04-20T01:53:41.097Z,7.77
2023-04-20T01:56:09.646Z,8.33
2023-04-20T01:58:38.239Z,8.60
2023-04-20T02:01:09.873Z,8.13
2023-04-20T02:03:38.599Z,7.97
2023-04-20T02:06:07.561Z,7.90
2023-04-20T02:08:36.187Z,7.90
2023-04-20T02:11:04.678Z,7.73
2023-04-20T02:13:33.921Z,7.73
2023-04-20T02:16:02.453Z,8.83
2023-04-20T02:18:32.982Z,8.43
2023-04-20T02:21:02.342Z,8.50
2023-04-20T02:23:31.663Z,7.73
2023-04-20T02:26:00.211Z,7.67
2023-04-20T02:28:28.661Z,8.97
2023-04-20T02:30:57.115Z,7.90
2023-04-20T02:33:25.646Z,7.40
2023-04-20T02:35:54.145Z,8.67
2023-04-20T02:38:22.619Z,8.77
2023-04-20T02:40:51.156Z,8.27
2023-04-20T02:43:19.619Z,9.57
2023-04-20T02:45:48.289Z,9.17
2023-04-20T02:48:16.825Z,8.50
2023-04-20T02:50:45.281Z,8.83
2023-04-20T02:53:13.785Z,9.17
2023-04-20T02:55:42.657Z,9.33
2023-04-20T02:58:11.485Z,11.00
2023-04-20T03:00:40.092Z,10.40
2023-04-20T03:03:08.878Z,8.73
2023-04-20T03:05:37.526Z,9.13
2023-04-20T03:08:07.176Z,9.80
2023-04-20T03:10:35.758Z,10.57
2023-04-20T03:13:04.234Z,9.90
2023-04-20T03:15:33.058Z,9.80
2023-04-20T03:18:01.627Z,8.87
2023-04-20T03:20:30.238Z,8.10
2023-04-20T03:22:58.811Z,7.83
2023-04-20T03:25:27.398Z,7.10
2023-04-20T03:27:56.012Z,6.63
2023-04-20T03:30:24.743Z,6.17
2023-04-20T03:32:53.290Z,6.33
2023-04-20T03:35:22.314Z,6.10
2023-04-20T03:37:50.977Z,5.23
2023-04-20T03:40:19.588Z,5.07
2023-04-20T03:42:48.087Z,6.10
2023-04-20T03:45:17.419Z,4.83
2023-04-20T03:47:46.008Z,4.00
2023-04-20T03:50:14.901Z,4.03
2023-04-20T03:52:43.427Z,4.67
2023-04-20T03:55:12.085Z,4.23
2023-04-20T03:57:40.661Z,3.77
2023-04-20T04:00:10.879Z,4.20
2023-04-20T04:02:39.497Z,4.33
2023-04-20T04:05:08.746Z,4.87
2023-04-20T04:07:37.229Z,4.03
2023-04-20T04:10:06.396Z,3.77
2023-04-20T04:12:34.881Z,3.63
2023-04-20T04:15:03.687Z,3.80
2023-04-20T04:17:31.891Z,3.23
2023-04-20T04:20:00.372Z,3.63
2023-04-20T04:22:30.572Z,3.47
2023-04-20T04:24:59.140Z,3.67
2023-04-20T04:27:29.887Z,4.33
2023-04-20T04:29:58.384Z,4.07
2023-04-20T04:32:27.055Z,4.47
2023-04-20T04:34:56.180Z,4.03
2023-04-20T04:37:24.953Z,5.43
2023-04-20T04:39:53.446Z,4.77
2023-04-20T04:42:22.472Z,4.37
2023-04-20T04:44:52.261Z,4.60
2023-04-20T04:47:22.165Z,4.60
2023-04-20T04:49:51.461Z,4.27
2023-04-20T04:52:19.876Z,4.70
2023-04-20T04:54:49.455Z,5.90
2023-04-20T04:57:17.924Z,5.30
2023-04-20T04:59:46.391Z,5.27
2023-04-20T05:02:14.993Z,4.83
2023-04-20T05:04:43.668Z,5.80
2023-04-20T05:07:12.230Z,6.17
2023-04-20T05:09:40.996Z,7.23
2023-04-20T05:12:09.614Z,8.43
2023-04-20T05:14:38.165Z,7.27
2023-04-20T05:17:06.696Z,7.80
2023-04-20T05:19:35.240Z,7.77
2023-04-20T05:22:03.721Z,7.83
2023-04-20T05:24:32.286Z,7.33
2023-04-20T05:27:00.791Z,10.83
2023-04-20T05:29:29.261Z,9.27
2023-04-20T05:31:57.804Z,8.37
2023-04-20T05:34:26.392Z,8.07
2023-04-20T05:36:57.020Z,10.00
2023-04-20T05:39:25.510Z,9.10
2023-04-20T05:41:54.134Z,8.53
2023-04-20T05:44:22.592Z,9.93
2023-04-20T05:46:51.095Z,9.03
2023-04-20T05:49:19.783Z,8.40
2023-04-20T05:51:48.363Z,9.50
2023-04-20T05:54:16.854Z,9.93
2023-04-20T05:56:45.615Z,10.40
2023-04-20T05:59:14.111Z,11.83
2023-04-20T06:01:42.606Z,10.47
2023-04-20T06:04:11.643Z,11.83
2023-04-20T06:06:40.485Z,13.60
2023-04-20T06:09:09.054Z,11.27
2023-04-20T06:11:37.653Z,11.43
2023-04-20T06:14:06.173Z,12.00
2023-04-20T06:16:34.719Z,11.63
2023-04-20T06:19:03.249Z,11.53
2023-04-20T06:21:32.326Z,12.13
2023-04-20T06:24:00.892Z,12.23
2023-04-20T06:26:29.375Z,10.93
2023-04-20T06:28:57.834Z,12.90
2023-04-20T06:31:26.155Z,11.83
2023-04-20T06:33:54.703Z,12.63
2023-04-20T06:36:23.154Z,11.57
2023-04-20T06:38:51.948Z,11.77
2023-04-20T06:41:20.088Z,11.67
2023-04-20T06:43:48.595Z,13.83
2023-04-20T06:46:17.134Z,12.50
2023-04-20T06:48:45.614Z,12.10
2023-04-20T06:51:15.063Z,12.00
2023-04-20T06:53:43.923Z,12.67
2023-04-20T06:56:12.596Z,11.07
2023-04-20T06:58:41.668Z,11.97
2023-04-20T07:01:10.736Z,10.93
2023-04-20T07:03:39.653Z,11.10
2023-04-20T07:06:11.140Z,10.07
2023-04-20T07:08:41.146Z,10.33
2023-04-20T07:11:09.651Z,11.43
2023-04-20T07:13:38.441Z,11.67
2023-04-20T07:16:07.213Z,12.10
2023-04-20T07:18:35.953Z,11.93
2023-04-20T07:21:04.511Z,11.87
2023-04-20T07:23:32.998Z,11.03
2023-04-20T07:26:01.468Z,11.60
2023-04-20T07:28:30.019Z,13.30
2023-04-20T07:30:59.506Z,12.60
2023-04-20T07:33:29.846Z,12.20
2023-04-20T07:35:58.588Z,11.87
2023-04-20T07:38:27.058Z,10.43
2023-04-20T07:40:55.574Z,10.73
2023-04-20T07:43:24.021Z,10.20
2023-04-20T07:45:52.575Z,10.40
2023-04-20T07:48:21.187Z,11.23
2023-04-20T07:50:49.670Z,10.80
2023-04-20T07:53:18.129Z,11.37
2023-04-20T07:55:47.166Z,10.17
2023-04-20T07:58:17.564Z,10.57
2023-04-20T08:00:47.752Z,11.23
2023-04-20T08:03:16.834Z,10.17
2023-04-20T08:05:45.381Z,11.20
2023-04-20T08:08:13.878Z,10.30
2023-04-20T08:10:42.307Z,11.23
2023-04-20T08:13:10.807Z,9.77
2023-04-20T08:15:38.978Z,10.37
2023-04-20T08:18:07.563Z,11.43
2023-04-20T08:20:36.063Z,10.17
2023-04-20T08:23:04.561Z,9.47
2023-04-20T08:25:33.039Z,9.63
2023-04-20T08:28:02.731Z,12.37
2023-04-20T08:30:31.622Z,10.97
2023-04-20T08:33:00.683Z,10.10
2023-04-20T08:35:29.275Z,10.13
2023-04-20T08:37:57.749Z,9.50
2023-04-20T08:40:28.300Z,10.03
2023-04-20T08:42:57.705Z,9.67
2023-04-20T08:45:27.011Z,8.50
2023-04-20T08:47:55.913Z,9.73
2023-04-20T08:50:24.518Z,11.57
2023-04-20T08:52:53.017Z,11.07
2023-04-20T08:55:21.866Z,11.90
2023-04-20T08:57:51.309Z,12.60
2023-04-20T09:00:20.775Z,10.10
2023-04-20T09:02:54.661Z,12.77
2023-04-20T09:05:30.953Z,10.93
2023-04-20T09:08:02.048Z,11.93
2023-04-20T09:10:45.441Z,14.27
2023-04-20T09:13:24.253Z,12.20
2023-04-20T09:15:52.813Z,12.53
2023-04-20T09:18:21.415Z,12.73
2023-04-20T09:20:49.651Z,12.93
2023-04-20T09:23:20.590Z,12.43
2023-04-20T09:25:53.313Z,12.53
2023-04-20T09:28:21.782Z,11.83
2023-04-20T09:30:51.756Z,11.67
2023-04-20T09:33:20.402Z,10.77
2023-04-20T09:35:48.528Z,12.13
2023-04-20T09:38:18.157Z,10.87
2023-04-20T09:40:46.759Z,13.87
2023-04-20T09:43:26.091Z,10.90
2023-04-20T09:45:54.739Z,11.23
2023-04-20T09:48:23.379Z,10.77
2023-04-20T09:50:52.054Z,12.47
2023-04-20T09:53:21.115Z,10.63
2023-04-20T09:55:52.192Z,10.70
2023-04-20T09:58:21.644Z,9.70
2023-04-20T10:00:51.150Z,10.63
2023-04-20T10:03:22.407Z,12.07
2023-04-20T10:05:53.006Z,10.13
2023-04-20T10:08:24.416Z,9.67
2023-04-20T10:10:53.061Z,9.60
2023-04-20T10:13:23.273Z,8.60
2023-04-20T10:15:52.174Z,8.53
2023-04-20T10:18:25.338Z,9.77
2023-04-20T10:21:06.298Z,9.60
2023-04-20T10:23:34.827Z,9.97
2023-04-20T10:26:04.025Z,9.50
2023-04-20T10:28:42.949Z,11.17
2023-04-20T10:31:13.768Z,10.00
2023-04-20T10:33:56.851Z,10.23
2023-04-20T10:36:34.461Z,10.53
2023-04-20T10:39:05.298Z,9.17
2023-04-20T10:41:33.790Z,11.80
2023-04-20T10:44:09.628Z,10.30
2023-04-20T10:46:38.401Z,11.07
2023-04-20T10:49:06.865Z,9.63
2023-04-20T10:51:36.407Z,9.83
2023-04-20T10:54:08.802Z,10.40
2023-04-20T10:56:47.647Z,10.20
2023-04-20T10:59:22.023Z,10.63
2023-04-20T11:01:51.645Z,11.00
2023-04-20T11:04:20.842Z,12.90
2023-04-20T11:06:49.528Z,11.30
2023-04-20T11:09:22.885Z,10.63
2023-04-20T11:12:06.368Z,9.83
2023-04-20T11:15:00.488Z,9.27
2023-04-20T11:17:36.551Z,9.67
2023-04-20T11:20:11.062Z,11.37
2023-04-20T11:22:40.779Z,10.20
2023-04-20T11:25:11.468Z,11.67
2023-04-20T11:27:40.900Z,13.47
2023-04-20T11:30:10.206Z,10.63
2023-04-20T11:32:39.193Z,12.53
2023-04-20T11:35:11.370Z,11.70
2023-04-20T11:37:51.461Z,11.83
2023-04-20T11:40:20.464Z,11.70
2023-04-20T11:42:49.047Z,13.90
2023-04-20T11:45:17.939Z,12.07
2023-04-20T11:47:47.478Z,10.80
2023-04-20T11:50:15.794Z,11.83
2023-04-20T11:52:44.252Z,11.00
2023-04-20T11:55:12.829Z,12.37
2023-04-20T11:57:41.084Z,11.53
2023-04-20T12:00:10.267Z,11.33
2023-04-20T12:02:39.067Z,13.13
2023-04-20T12:05:08.695Z,14.87
2023-04-20T12:07:37.406Z,13.73
2023-04-20T12:10:06.124Z,10.87
2023-04-20T12:12:35.255Z,11.30
2023-04-20T12:15:03.843Z,10.63
2023-04-20T12:17:32.010Z,12.10
2023-04-20T12:20:00.601Z,13.10
2023-04-20T12:22:29.189Z,12.10
2023-04-20T12:24:57.661Z,13.20
2023-04-20T12:27:26.758Z,12.73
2023-04-20T12:29:54.798Z,14.17
2023-04-20T12:32:23.249Z,13.90
2023-04-20T12:34:51.905Z,15.77
2023-04-20T12:37:21.018Z,13.57
2023-04-20T12:39:49.505Z,13.93
2023-04-20T12:42:17.996Z,15.07
2023-04-20T12:44:46.494Z,16.27
2023-04-20T12:47:16.555Z,17.00
2023-04-20T12:49:44.638Z,16.30
2023-04-20T12:52:13.324Z,18.47
2023-04-20T12:54:43.970Z,17.13
2023-04-20T12:57:13.112Z,16.63
2023-04-20T12:59:41.741Z,18.40
2023-04-20T13:02:10.926Z,18.17
2023-04-20T13:04:39.215Z,19.83
2023-04-20T13:07:07.973Z,18.63
2023-04-20T13:09:36.074Z,19.20
2023-04-20T13:12:04.702Z,20.13
2023-04-20T13:14:33.245Z,17.60
2023-04-20T13:17:02.620Z,21.00
2023-04-20T13:19:31.921Z,17.23
2023-04-20T13:22:00.843Z,17.97
2023-04-20T13:24:29.421Z,20.53
2023-04-20T13:26:58.273Z,20.30
2023-04-20T13:29:27.369Z,16.80
2023-04-20T13:31:55.979Z,17.23
2023-04-20T13:34:24.653Z,18.37
2023-04-20T13:36:53.308Z,19.00
2023-04-20T13:39:22.071Z,17.57
2023-04-20T13:41:50.655Z,20.30
2023-04-20T13:44:19.524Z,18.13
2023-04-20T13:46:48.743Z,19.47
2023-04-20T13:49:17.839Z,19.83
2023-04-20T13:51:46.390Z,19.57
2023-04-20T13:54:14.885Z,19.20
2023-04-20T13:56:43.336Z,19.57
2023-04-20T13:59:11.796Z,22.37
2023-04-20T14:01:40.351Z,20.73
2023-04-20T14:04:11.144Z,24.20
2023-04-20T14:06:40.042Z,26.23
2023-04-20T14:09:08.908Z,23.60
2023-04-20T14:11:37.484Z,21.60
2023-04-20T14:14:06.190Z,21.37
2023-04-20T14:16:34.816Z,22.47
2023-04-20T14:19:04.581Z,21.13
2023-04-20T14:21:33.897Z,20.57
2023-04-20T14:24:02.343Z,21.80
2023-04-20T14:26:30.866Z,22.60
2023-04-20T14:28:59.372Z,23.57
2023-04-20T14:31:27.470Z,22.80
2023-04-20T14:33:56.132Z,24.17
2023-04-20T14:36:24.701Z,22.90
2023-04-20T14:38:54.312Z,22.80
2023-04-20T14:41:23.129Z,25.17
2023-04-20T14:43:51.652Z,24.40
2023-04-20T14:46:20.393Z,26.13
2023-04-20T14:48:49.099Z,23.97
2023-04-20T14:51:19.779Z,23.73
2023-04-20T14:53:48.257Z,25.93
2023-04-20T14:56:16.817Z,29.40
2023-04-20T14:58:45.329Z,25.13
2023-04-20T15:01:14.784Z,25.07
2023-04-20T15:03:43.747Z,26.93
2023-04-20T15:06:12.597Z,26.67
2023-04-20T15:08:41.073Z,24.13
2023-04-20T15:11:09.581Z,25.70
2023-04-20T15:13:41.121Z,22.70
2023-04-20T15:16:10.169Z,25.63
2023-04-20T15:18:38.615Z,24.83
2023-04-20T15:21:08.421Z,26.83
2023-04-20T15:23:36.947Z,25.93
2023-04-20T15:26:05.613Z,25.93
2023-04-20T15:28:34.105Z,24.30
2023-04-20T15:31:02.623Z,25.53
2023-04-20T15:33:31.137Z,26.30
2023-04-20T15:35:59.692Z,23.13
2023-04-20T15:38:27.792Z,25.87
2023-04-20T15:40:56.332Z,20.87
2023-04-20T15:43:24.879Z,25.13
2023-04-20T15:45:53.428Z,20.43
2023-04-20T15:48:21.969Z,22.40
2023-04-20T15:50:53.817Z,23.10
2023-04-20T15:53:24.242Z,22.67
2023-04-20T15:55:52.319Z,24.93
2023-04-20T15:58:20.978Z,21.17
2023-04-20T16:00:49.736Z,22.57
2023-04-20T16:03:18.153Z,24.57
2023-04-20T16:05:46.836Z,24.83
2023-04-20T16:08:15.376Z,25.80
2023-04-20T16:10:44.134Z,23.97
2023-04-20T16:13:12.686Z,24.23
2023-04-20T16:15:41.641Z,23.70
2023-04-20T16:18:12.384Z,23.50
2023-04-20T16:20:41.467Z,26.17
2023-04-20T16:23:09.775Z,21.10
2023-04-20T16:25:38.584Z,24.03
2023-04-20T16:28:06.978Z,22.30
2023-04-20T16:30:36.978Z,25.20
2023-04-20T16:33:05.994Z,23.63
2023-04-20T16:35:34.456Z,24.50
2023-04-20T16:38:03.090Z,21.93
2023-04-20T16:40:32.080Z,21.37
2023-04-20T16:43:01.931Z,21.73
2023-04-20T16:45:30.477Z,21.17
2023-04-20T16:47:59.949Z,21.30
2023-04-20T16:50:28.352Z,22.73
2023-04-20T16:52:56.927Z,22.10
2023-04-20T16:55:26.454Z,22.73
2023-04-20T16:57:59.819Z,27.73
2023-04-20T17:00:33.221Z,23.47
2023-04-20T17:03:02.348Z,19.70
2023-04-20T17:05:30.978Z,22.27
2023-04-20T17:07:59.604Z,22.13
2023-04-20T17:10:28.029Z,23.07
2023-04-20T17:12:56.536Z,22.80
2023-04-20T17:15:25.141Z,21.87
2023-04-20T17:17:53.268Z,22.63
2023-04-20T17:20:22.029Z,23.37
2023-04-20T17:22:50.304Z,24.50
2023-04-20T17:25:19.448Z,23.97
2023-04-20T17:27:47.908Z,23.53
2023-04-20T17:30:16.808Z,26.60
2023-04-20T17:32:45.629Z,22.90
2023-04-20T17:35:13.901Z,21.70
2023-04-20T17:37:42.480Z,24.60
2023-04-20T17:40:11.336Z,21.27
2023-04-20T17:42:40.282Z,24.47
2023-04-20T17:45:09.378Z,23.60
2023-04-20T17:47:41.132Z,26.67
2023-04-20T17:50:13.976Z,21.60
2023-04-20T17:52:42.680Z,22.77
2023-04-20T17:55:11.346Z,23.70
2023-04-20T17:57:42.738Z,29.13
2023-04-20T18:00:12.661Z,24.37
2023-04-20T18:02:41.707Z,26.83
2023-04-20T18:05:11.133Z,25.80
2023-04-20T18:07:39.642Z,23.27
2023-04-20T18:10:08.976Z,24.67
2023-04-20T18:12:37.706Z,27.17
2023-04-20T18:15:08.344Z,25.00
2023-04-20T18:17:37.307Z,24.43
2023-04-20T18:20:08.669Z,28.47
2023-04-20T18:22:38.538Z,24.77
2023-04-20T18:25:07.419Z,26.87
2023-04-20T18:27:36.312Z,24.83
2023-04-20T18:30:05.071Z,26.07
2023-04-20T18:32:33.384Z,28.53
2023-04-20T18:35:02.234Z,30.20
2023-04-20T18:37:30.441Z,28.13
2023-04-20T18:40:00.052Z,25.57
2023-04-20T18:42:30.819Z,28.23
2023-04-20T18:44:59.336Z,27.73
2023-04-20T18:47:29.577Z,25.00
2023-04-20T18:49:57.725Z,24.67
2023-04-20T18:52:26.897Z,26.43
2023-04-20T18:54:55.984Z,28.37
2023-04-20T18:57:27.110Z,33.50
2023-04-20T18:59:58.272Z,30.70
2023-04-20T19:02:27.092Z,28.70
2023-04-20T19:04:56.105Z,28.20
2023-04-20T19:07:25.226Z,26.47
2023-04-20T19:09:53.689Z,33.20
2023-04-20T19:12:22.684Z,28.70
2023-04-20T19:14:51.404Z,27.87
2023-04-20T19:17:19.778Z,27.20
2023-04-20T19:19:50.990Z,25.87
2023-04-20T19:22:19.305Z,28.63
2023-04-20T19:24:48.083Z,29.33
2023-04-20T19:27:16.486Z,27.17
2023-04-20T19:29:44.953Z,27.37
2023-04-20T19:32:13.361Z,27.97
2023-04-20T19:34:42.249Z,29.10
2023-04-20T19:37:10.976Z,25.50
2023-04-20T19:39:39.513Z,25.97
2023-04-20T19:42:08.074Z,28.57
2023-04-20T19:44:37.069Z,27.30
2023-04-20T19:47:05.703Z,27.03
2023-04-20T19:49:34.352Z,26.23
2023-04-20T19:52:03.152Z,25.33
2023-04-20T19:54:31.814Z,27.50
2023-04-20T19:57:00.069Z,24.07
2023-04-20T19:59:30.072Z,26.30
2023-04-20T20:01:59.022Z,25.40
2023-04-20T20:04:27.842Z,25.07
2023-04-20T20:06:56.961Z,25.23
2023-04-20T20:09:25.876Z,24.17
2023-04-20T20:11:54.707Z,26.13
2023-04-20T20:14:24.089Z,24.17
2023-04-20T20:16:52.242Z,21.83
2023-04-20T20:19:22.167Z,22.83
2023-04-20T20:21:51.078Z,21.47
2023-04-20T20:24:20.752Z,21.73
2023-04-20T20:26:49.360Z,22.73
2023-04-20T20:29:17.823Z,21.13
2023-04-20T20:31:46.627Z,23.23
2023-04-20T20:34:15.200Z,19.13
2023-04-20T20:36:44.953Z,23.07
2023-04-20T20:39:14.119Z,17.70
2023-04-20T20:41:43.873Z,20.97
2023-04-20T20:44:12.613Z,22.50
2023-04-20T20:46:41.365Z,21.40
2023-04-20T20:49:09.867Z,20.93
2023-04-20T20:51:38.462Z,24.77
2023-04-20T20:54:07.018Z,20.47
2023-04-20T20:56:35.533Z,18.97
2023-04-20T20:59:04.070Z,18.07
2023-04-20T21:01:32.715Z,20.97
2023-04-20T21:04:01.573Z,23.77
2023-04-20T21:06:29.977Z,21.73
2023-04-20T21:08:58.715Z,20.90
2023-04-20T21:11:26.836Z,23.77
2023-04-20T21:14:01.721Z,20.97
2023-04-20T21:16:30.536Z,22.77
2023-04-20T21:18:58.609Z,21.70
2023-04-20T21:21:27.645Z,19.93
2023-04-20T21:23:56.357Z,19.27
2023-04-20T21:26:24.820Z,22.93
2023-04-20T21:28:53.309Z,18.37
2023-04-20T21:31:21.570Z,19.73
2023-04-20T21:33:49.769Z,20.60
2023-04-20T21:36:18.207Z,16.33
2023-04-20T21:38:46.712Z,18.37
2023-04-20T21:41:15.213Z,22.33
2023-04-20T21:43:43.768Z,23.77
2023-04-20T21:46:16.601Z,19.40
2023-04-20T21:48:45.216Z,19.67
2023-04-20T21:51:17.861Z,19.13
2023-04-20T21:53:46.452Z,19.43
2023-04-20T21:56:15.414Z,18.60
2023-04-20T21:58:43.921Z,21.07
2023-04-20T22:01:12.453Z,25.43
2023-04-20T22:03:41.118Z,20.17
2023-04-20T22:06:09.852Z,18.87
2023-04-20T22:08:39.851Z,18.80
2023-04-20T22:11:08.619Z,20.53
2023-04-20T22:13:38.049Z,20.07
2023-04-20T22:16:06.917Z,20.77
2023-04-20T22:18:35.406Z,20.90
2023-04-20T22:21:03.816Z,21.27
2023-04-20T22:23:31.886Z,21.37
2023-04-20T22:26:00.550Z,23.23
2023-04-20T22:28:28.769Z,22.57
2023-04-20T22:30:57.299Z,23.03
2023-04-20T22:33:25.825Z,24.50
2023-04-20T22:35:54.084Z,20.80
2023-04-20T22:38:22.748Z,21.93
2023-04-20T22:40:51.213Z,25.07
2023-04-20T22:43:20.211Z,25.80
2023-04-20T22:45:48.912Z,23.23
2023-04-20T22:48:17.695Z,23.30
2023-04-20T22:50:46.181Z,24.57
2023-04-20T22:53:14.969Z,25.40
2023-04-20T22:55:43.340Z,27.00
2023-04-20T22:58:11.790Z,23.73
2023-04-20T23:00:40.857Z,27.03
2023-04-20T23:03:09.572Z,25.07
2023-04-20T23:05:39.190Z,24.60
2023-04-20T23:08:07.801Z,28.63
2023-04-20T23:10:36.357Z,22.60
2023-04-20T23:13:05.291Z,27.07
2023-04-20T23:15:33.463Z,26.20
2023-04-20T23:18:02.391Z,29.27
2023-04-20T23:20:30.939Z,29.10
2023-04-20T23:22:59.029Z,26.10
2023-04-20T23:25:27.105Z,28.37
2023-04-20T23:27:55.430Z,29.47
2023-04-20T23:30:23.821Z,34.63
2023-04-20T23:32:52.379Z,27.30
2023-04-20T23:35:20.935Z,34.83
2023-04-20T23:37:49.483Z,27.73
2023-04-20T23:40:17.689Z,24.87
2023-04-20T23:42:46.195Z,29.73
2023-04-20T23:45:14.423Z,29.00
2023-04-20T23:47:42.673Z,29.97
2023-04-20T23:50:11.259Z,30.13
2023-04-20T23:52:40.629Z,30.30
2023-04-20T23:55:10.424Z,30.67
2023-04-20T23:57:39.942Z,30.83
